Twin Brooks, SD (57269)

10:04 AM CST on December 20, 2014 (GMT -0600)
Rural Summit | Change Station
CLOSE
Current Station
Personal Weather Station
Location: Summit, SD
Elevation: 1913 ft
Nearby Weather Stations

Elev 1913 ft 45.22 °N, 97.08 °W | Updated 2 minutes ago

Overcast
Overcast
26.8 °F
Feels Like 21 °F
N
5.3
Wind Variable Wind from SSW

Today
High -- | Low -- °F
--% Chance of Precip.
Yesterday
High -- | Low -- °F
Precip. -- in
8:03 AM 4:48 PM
Waning Crescent, 3% visible
Pressure 30.08 in
Visibility 2.0 miles
Clouds Overcast 200 ft
Windchill 21 °F
Dew Point 26 °F
Humidity 96%
Rainfall 0.00 in
Snow Depth Not available.
UV 0 out of 12
Pollen .10 out of 12
Air Quality Not available.
Flu Activity Not available.
METAR KATY 201553Z AUTO 19011G16KT 2SM BR OVC002 M02/M03 A3001 RMK AO2 SLP185 T10221028

More Conditions Fewer Conditions

Pressure 30.08 in
Visibility 2.0 miles
Clouds Overcast 200 ft
Windchill 21 °F
Dew Point 26 °F
Humidity 96%
Rainfall 0.00 in
Snow Depth Not available.
UV 0 out of 12
Pollen .10 out of 12
Air Quality Not available.
Flu Activity Not available.
METAR KATY 201553Z AUTO 19011G16KT 2SM BR OVC002 M02/M03 A3001 RMK AO2 SLP185 T10221028

More Conditions Fewer Conditions

10-Day Weather Forecast

Almanac

Astronomy

Dec. 20, 2014 Rise Set
Actual Time
Civil Twilight
Nautical Twilight
Astronomical Twilight
Moon
Length of Visible Light
Length of Day
Tomorrow will be .
, % of the Moon is Illuminated

Today's Extremes

State Highs State Lows

Community

WunderPhotos

Upload Photos

1,779,212 photos uploaded!

WunderBlogs® & News

Nearby

Air Quality

  Air Quality AQ Index Pollutant
Not available.

Snow Depth

Station Depth Elevation

Earthquake Activity

City Distance Mag. Time & Date
Minimum magnitude displayed is 2.5.

Coastal Water Temperatures

Place Temperature

Nearby Weather Stations